createdAt,value
2022-09-26T00:00:17.060Z,99.90
2022-09-26T00:02:45.053Z,99.90
2022-09-26T00:05:12.192Z,99.90
2022-09-26T00:07:39.012Z,99.90
2022-09-26T00:10:06.040Z,99.90
2022-09-26T00:12:32.853Z,99.90
2022-09-26T00:14:59.677Z,99.90
2022-09-26T00:17:26.555Z,99.90
2022-09-26T00:19:53.342Z,99.90
2022-09-26T00:22:20.227Z,99.90
2022-09-26T00:24:47.097Z,99.90
2022-09-26T00:27:14.251Z,99.90
2022-09-26T00:29:41.147Z,99.90
2022-09-26T00:32:08.013Z,99.90
2022-09-26T00:34:34.825Z,99.90
2022-09-26T00:37:01.819Z,99.90
2022-09-26T00:39:28.647Z,99.90
2022-09-26T00:41:55.520Z,99.90
2022-09-26T00:44:34.809Z,99.90
2022-09-26T00:47:01.992Z,99.90
2022-09-26T00:49:34.058Z,99.90
2022-09-26T00:52:10.267Z,99.90
2022-09-26T00:54:38.027Z,99.90
2022-09-26T00:57:17.430Z,99.90
2022-09-26T00:59:46.662Z,99.90
2022-09-26T01:02:14.336Z,99.90
2022-09-26T01:04:42.552Z,99.90
2022-09-26T01:07:12.040Z,99.90
2022-09-26T01:09:39.414Z,99.90
2022-09-26T01:12:08.906Z,99.90
2022-09-26T01:14:37.710Z,99.90
2022-09-26T01:17:05.102Z,99.90
2022-09-26T01:19:50.754Z,99.90
2022-09-26T01:22:27.037Z,99.90
2022-09-26T01:25:13.117Z,99.90
2022-09-26T01:27:55.157Z,99.90
2022-09-26T01:30:23.645Z,99.90
2022-09-26T01:33:08.951Z,99.90
2022-09-26T01:35:54.953Z,99.90
2022-09-26T01:38:37.234Z,99.90
2022-09-26T01:41:14.131Z,99.90
2022-09-26T01:43:43.944Z,99.90
2022-09-26T01:46:14.077Z,99.90
2022-09-26T01:48:44.802Z,99.90
2022-09-26T01:51:14.504Z,99.90
2022-09-26T01:53:41.288Z,99.90
2022-09-26T01:56:16.737Z,99.90
2022-09-26T01:58:49.687Z,99.90
2022-09-26T02:01:18.850Z,99.90
2022-09-26T02:03:47.920Z,99.90
2022-09-26T02:06:18.478Z,99.90
2022-09-26T02:08:54.182Z,99.90
2022-09-26T02:11:22.142Z,99.90
2022-09-26T02:16:43.515Z,99.90
2022-09-26T02:19:26.861Z,99.90
2022-09-26T02:21:54.140Z,99.90
2022-09-26T02:24:22.345Z,99.90
2022-09-26T02:26:49.933Z,99.90
2022-09-26T02:29:19.046Z,99.90
2022-09-26T02:32:12.801Z,99.90
2022-09-26T02:34:41.357Z,99.90
2022-09-26T02:37:08.734Z,99.90
2022-09-26T02:39:36.533Z,99.90
2022-09-26T02:42:07.925Z,99.90
2022-09-26T02:44:40.750Z,99.90
2022-09-26T02:47:10.764Z,99.90
2022-09-26T02:49:37.847Z,99.90
2022-09-26T02:52:23.625Z,99.90
2022-09-26T02:55:07.495Z,99.90
2022-09-26T02:57:40.567Z,99.90
2022-09-26T03:00:10.615Z,99.90
2022-09-26T03:02:45.897Z,99.90
2022-09-26T03:05:30.574Z,99.90
2022-09-26T03:08:07.601Z,99.90
2022-09-26T03:10:35.454Z,99.90
2022-09-26T03:13:05.095Z,99.90
2022-09-26T03:15:33.164Z,99.90
2022-09-26T03:18:01.607Z,99.90
2022-09-26T03:20:29.024Z,99.90
2022-09-26T03:22:56.007Z,99.90
2022-09-26T03:25:25.688Z,99.90
2022-09-26T03:28:03.245Z,99.90
2022-09-26T03:30:30.145Z,99.90
2022-09-26T03:33:32.285Z,99.90
2022-09-26T03:36:00.085Z,99.90
2022-09-26T03:38:27.568Z,99.90
2022-09-26T03:41:04.305Z,99.90
2022-09-26T03:43:49.589Z,99.90
2022-09-26T03:46:16.762Z,99.90
2022-09-26T03:48:43.571Z,99.90
2022-09-26T03:51:13.926Z,99.90
2022-09-26T03:53:42.220Z,99.90
2022-09-26T03:56:13.555Z,99.90
2022-09-26T03:58:41.421Z,99.90
2022-09-26T04:01:09.829Z,99.90
2022-09-26T04:03:37.716Z,99.90
2022-09-26T04:06:05.338Z,99.90
2022-09-26T04:08:32.231Z,99.90
2022-09-26T04:11:03.504Z,99.90
2022-09-26T04:16:19.952Z,99.90
2022-09-26T04:18:57.307Z,99.90
2022-09-26T04:21:27.080Z,99.90
2022-09-26T04:23:54.664Z,99.90
2022-09-26T04:26:24.111Z,99.90
2022-09-26T04:28:54.954Z,99.90
2022-09-26T04:31:24.279Z,99.90
2022-09-26T04:33:57.913Z,99.90
2022-09-26T04:36:24.710Z,99.90
2022-09-26T04:38:51.502Z,99.90
2022-09-26T04:41:20.733Z,99.90
2022-09-26T04:43:48.883Z,99.90
2022-09-26T04:46:22.342Z,99.90
2022-09-26T04:48:52.207Z,99.90
2022-09-26T04:51:22.073Z,99.90
2022-09-26T04:53:50.646Z,99.90
2022-09-26T04:56:40.771Z,99.90
2022-09-26T04:59:08.518Z,99.90
2022-09-26T05:01:58.411Z,99.90
2022-09-26T05:04:33.539Z,99.90
2022-09-26T05:07:00.830Z,99.90
2022-09-26T05:09:35.508Z,99.90
2022-09-26T05:12:10.001Z,99.90
2022-09-26T05:14:38.606Z,99.90
2022-09-26T05:17:06.003Z,99.90
2022-09-26T05:19:33.914Z,99.90
2022-09-26T05:22:20.065Z,99.90
2022-09-26T05:25:06.824Z,99.90
2022-09-26T05:27:35.302Z,99.90
2022-09-26T05:30:02.383Z,99.90
2022-09-26T05:32:29.696Z,99.90
2022-09-26T05:34:57.524Z,99.90
2022-09-26T05:37:26.350Z,99.90
2022-09-26T05:40:12.686Z,99.90
2022-09-26T05:42:46.159Z,99.90
2022-09-26T05:45:13.780Z,99.90
2022-09-26T05:47:42.167Z,99.90
2022-09-26T05:50:12.275Z,99.90
2022-09-26T05:52:40.176Z,99.90
2022-09-26T05:55:12.019Z,99.90
2022-09-26T05:58:01.123Z,99.90
2022-09-26T06:00:48.544Z,99.90
2022-09-26T06:03:15.936Z,99.90
2022-09-26T06:06:04.672Z,99.90
2022-09-26T06:08:33.225Z,99.90
2022-09-26T06:11:31.112Z,99.90
2022-09-26T06:14:00.802Z,99.90
2022-09-26T06:16:28.303Z,99.90
2022-09-26T06:18:55.826Z,99.90
2022-09-26T06:21:23.907Z,99.90
2022-09-26T06:23:54.886Z,99.90
2022-09-26T06:26:23.741Z,99.90
2022-09-26T06:29:00.993Z,99.90
2022-09-26T06:31:35.411Z,99.90
2022-09-26T06:34:12.942Z,99.90
2022-09-26T06:36:59.744Z,99.90
2022-09-26T06:39:35.899Z,99.90
2022-09-26T06:42:07.793Z,99.90
2022-09-26T06:44:37.516Z,99.90
2022-09-26T06:47:29.023Z,99.90
2022-09-26T06:50:28.175Z,99.90
2022-09-26T06:52:57.734Z,99.90
2022-09-26T06:55:25.388Z,99.90
2022-09-26T06:57:53.984Z,99.90
2022-09-26T07:00:22.103Z,99.90
2022-09-26T07:03:00.285Z,99.90
2022-09-26T07:05:46.914Z,99.90
2022-09-26T07:08:14.842Z,99.90
2022-09-26T07:10:41.614Z,99.90
2022-09-26T07:13:15.791Z,99.90
2022-09-26T07:15:46.736Z,99.90
2022-09-26T07:18:37.938Z,99.90
2022-09-26T07:21:17.241Z,99.90
2022-09-26T07:23:48.745Z,99.90
2022-09-26T07:26:18.592Z,99.90
2022-09-26T07:28:46.948Z,99.90
2022-09-26T07:31:15.754Z,99.90
2022-09-26T07:34:14.613Z,99.90
2022-09-26T07:36:45.942Z,99.90
2022-09-26T07:39:13.193Z,99.90
2022-09-26T07:41:40.701Z,99.90
2022-09-26T07:47:13.738Z,99.90
2022-09-26T07:50:00.288Z,99.90
2022-09-26T07:52:46.450Z,99.90
2022-09-26T07:55:25.012Z,99.90
2022-09-26T07:58:30.108Z,99.90
2022-09-26T08:01:16.647Z,99.90
2022-09-26T08:04:01.785Z,99.90
2022-09-26T08:06:36.816Z,99.90
2022-09-26T08:09:04.269Z,99.80
2022-09-26T08:11:49.747Z,99.80
2022-09-26T08:14:40.513Z,99.70
2022-09-26T08:17:35.080Z,99.80
2022-09-26T08:20:02.592Z,99.80
2022-09-26T08:22:30.025Z,99.70
2022-09-26T08:25:00.283Z,99.70
2022-09-26T08:27:58.378Z,99.70
2022-09-26T08:30:31.328Z,99.70
2022-09-26T08:33:02.095Z,99.60
2022-09-26T08:35:38.552Z,99.70
2022-09-26T08:38:31.449Z,99.80
2022-09-26T08:41:39.532Z,99.90
2022-09-26T08:44:39.380Z,99.90
2022-09-26T08:47:41.257Z,99.90
2022-09-26T08:50:37.985Z,99.90
2022-09-26T08:53:11.632Z,99.90
2022-09-26T08:55:46.667Z,99.90
2022-09-26T08:58:27.942Z,99.90
2022-09-26T09:01:01.435Z,99.80
2022-09-26T09:03:37.815Z,99.60
2022-09-26T09:06:13.186Z,99.40
2022-09-26T09:08:43.992Z,99.50
2022-09-26T09:11:27.280Z,99.60
2022-09-26T09:14:12.512Z,99.80
2022-09-26T09:17:07.116Z,99.90
2022-09-26T09:20:06.401Z,99.80
2022-09-26T09:22:54.633Z,99.40
2022-09-26T09:25:40.307Z,99.30
2022-09-26T09:28:32.467Z,99.40
2022-09-26T09:31:01.447Z,99.60
2022-09-26T09:33:30.956Z,99.90
2022-09-26T09:36:36.544Z,99.90
2022-09-26T09:39:37.148Z,99.90
2022-09-26T09:42:40.363Z,99.70
2022-09-26T09:45:13.561Z,99.60
2022-09-26T09:47:40.550Z,99.50
2022-09-26T09:50:27.625Z,99.40
2022-09-26T09:52:59.771Z,99.70
2022-09-26T09:55:56.630Z,99.40
2022-09-26T09:58:23.478Z,99.60
2022-09-26T10:00:59.648Z,99.90
2022-09-26T10:03:39.906Z,99.90
2022-09-26T10:06:44.227Z,99.90
2022-09-26T10:09:35.243Z,99.90
2022-09-26T10:12:16.674Z,99.80
2022-09-26T10:15:11.803Z,99.70
2022-09-26T10:18:23.456Z,99.30
2022-09-26T10:20:57.476Z,99.20
2022-09-26T10:23:27.599Z,99.30
2022-09-26T10:26:00.566Z,99.20
2022-09-26T10:28:30.010Z,99.10
2022-09-26T10:31:01.660Z,98.80
2022-09-26T10:33:30.791Z,98.00
2022-09-26T10:36:19.976Z,97.70
2022-09-26T10:39:10.860Z,97.50
2022-09-26T10:41:40.138Z,97.60
2022-09-26T10:44:20.623Z,97.50
2022-09-26T10:47:34.584Z,97.40
2022-09-26T10:50:31.106Z,97.50
2022-09-26T10:53:02.893Z,97.60
2022-09-26T10:55:32.942Z,97.50
2022-09-26T10:58:01.157Z,97.50
2022-09-26T11:00:36.794Z,97.60
2022-09-26T11:03:08.694Z,97.70
2022-09-26T11:05:59.165Z,97.80
2022-09-26T11:08:33.463Z,98.20
2022-09-26T11:11:24.035Z,98.00
2022-09-26T11:14:08.458Z,97.50
2022-09-26T11:16:50.800Z,97.70
2022-09-26T11:19:19.611Z,97.80
2022-09-26T11:21:49.718Z,97.70
2022-09-26T11:24:22.972Z,97.80
2022-09-26T11:26:53.635Z,97.80
2022-09-26T11:29:36.908Z,98.00
2022-09-26T11:32:23.871Z,98.20
2022-09-26T11:34:54.369Z,98.30
2022-09-26T11:37:34.022Z,98.20
2022-09-26T11:40:14.698Z,97.80
2022-09-26T11:42:45.354Z,97.60
2022-09-26T11:45:12.632Z,97.70
2022-09-26T11:48:21.768Z,97.90
2022-09-26T11:51:21.840Z,97.90
2022-09-26T11:53:51.824Z,98.10
2022-09-26T11:56:26.536Z,98.20
2022-09-26T11:59:20.819Z,98.40
2022-09-26T12:01:48.180Z,98.60
2022-09-26T12:04:26.736Z,98.40
2022-09-26T12:07:02.403Z,98.30
2022-09-26T12:09:41.636Z,98.00
2022-09-26T12:12:19.450Z,97.40
2022-09-26T12:15:02.906Z,96.90
2022-09-26T12:17:41.019Z,96.50
2022-09-26T12:20:07.836Z,96.40
2022-09-26T12:22:38.776Z,95.50
2022-09-26T12:25:13.782Z,95.30
2022-09-26T12:27:47.233Z,95.20
2022-09-26T12:30:15.759Z,95.60
2022-09-26T12:32:47.087Z,95.80
2022-09-26T12:35:14.030Z,96.40
2022-09-26T12:37:41.479Z,96.70
2022-09-26T12:40:10.222Z,97.00
2022-09-26T12:42:47.103Z,97.40
2022-09-26T12:45:17.324Z,97.40
2022-09-26T12:47:50.796Z,97.30
2022-09-26T12:50:24.924Z,96.50
2022-09-26T12:52:54.845Z,96.10
2022-09-26T12:55:22.474Z,95.90
2022-09-26T12:58:00.856Z,95.70
2022-09-26T13:00:30.469Z,95.20
2022-09-26T13:03:00.378Z,95.30
2022-09-26T13:05:49.838Z,95.40
2022-09-26T13:08:19.697Z,95.10
2022-09-26T13:10:50.493Z,95.10
2022-09-26T13:13:35.049Z,95.40
2022-09-26T13:16:13.672Z,95.50
2022-09-26T13:18:51.838Z,95.20
2022-09-26T13:21:24.883Z,94.90
2022-09-26T13:23:58.125Z,94.70
2022-09-26T13:26:33.723Z,95.10
2022-09-26T13:29:24.522Z,95.50
2022-09-26T13:31:58.728Z,94.70
2022-09-26T13:34:28.125Z,93.70
2022-09-26T13:36:57.437Z,93.70
2022-09-26T13:39:46.834Z,93.70
2022-09-26T13:42:16.715Z,93.10
2022-09-26T13:44:44.699Z,92.80
2022-09-26T13:47:15.266Z,92.60
2022-09-26T13:50:01.338Z,92.50
2022-09-26T13:52:28.240Z,92.70
2022-09-26T13:54:57.408Z,93.00
2022-09-26T13:57:39.066Z,92.80
2022-09-26T14:00:19.434Z,92.70
2022-09-26T14:03:09.455Z,92.70
2022-09-26T14:05:42.480Z,92.80
2022-09-26T14:08:43.536Z,92.50
2022-09-26T14:11:15.410Z,92.40
2022-09-26T14:13:42.220Z,92.50
2022-09-26T14:16:27.479Z,92.80
2022-09-26T14:19:00.640Z,93.60
2022-09-26T14:21:30.403Z,94.40
2022-09-26T14:24:16.266Z,95.10
2022-09-26T14:26:44.530Z,95.60
2022-09-26T14:29:24.996Z,96.00
2022-09-26T14:32:18.555Z,96.10
2022-09-26T14:34:46.879Z,96.10
2022-09-26T14:37:25.869Z,96.70
2022-09-26T14:40:08.173Z,96.70
2022-09-26T14:42:37.712Z,97.00
2022-09-26T14:45:27.997Z,97.10
2022-09-26T14:48:01.193Z,97.10
2022-09-26T14:50:32.166Z,97.30
2022-09-26T14:53:02.443Z,97.60
2022-09-26T14:55:30.953Z,97.80
2022-09-26T14:58:17.124Z,98.10
2022-09-26T15:00:46.399Z,98.20
2022-09-26T15:03:15.154Z,98.40
2022-09-26T15:05:43.045Z,98.20
2022-09-26T15:08:27.216Z,98.20
2022-09-26T15:10:56.002Z,98.30
2022-09-26T15:13:26.199Z,98.20
2022-09-26T15:15:53.045Z,98.10
2022-09-26T15:18:26.265Z,98.20
2022-09-26T15:21:01.906Z,98.40
2022-09-26T15:23:32.425Z,98.70
2022-09-26T15:26:02.439Z,99.60
2022-09-26T15:28:34.445Z,99.80
2022-09-26T15:31:21.500Z,99.50
2022-09-26T15:33:51.760Z,99.20
2022-09-26T15:36:18.770Z,97.90
2022-09-26T15:38:47.411Z,97.40
2022-09-26T15:41:16.161Z,97.30
2022-09-26T15:43:43.037Z,96.50
2022-09-26T15:46:20.600Z,96.50
2022-09-26T15:48:47.569Z,96.30
2022-09-26T15:51:23.628Z,95.40
2022-09-26T15:53:55.806Z,94.70
2022-09-26T15:56:30.907Z,93.70
2022-09-26T15:59:01.051Z,93.40
2022-09-26T16:01:29.558Z,93.40
2022-09-26T16:04:13.655Z,93.60
2022-09-26T16:06:41.849Z,94.00
2022-09-26T16:09:11.567Z,94.60
2022-09-26T16:11:46.336Z,94.80
2022-09-26T16:14:31.562Z,94.80
2022-09-26T16:17:09.845Z,95.00
2022-09-26T16:19:42.704Z,94.20
2022-09-26T16:22:28.291Z,93.80
2022-09-26T16:25:02.132Z,92.90
2022-09-26T16:27:33.943Z,92.90
2022-09-26T16:30:05.107Z,93.20
2022-09-26T16:32:32.206Z,92.80
2022-09-26T16:35:10.685Z,92.60
2022-09-26T16:37:37.581Z,92.50
2022-09-26T16:40:04.542Z,92.30
2022-09-26T16:42:31.731Z,92.30
2022-09-26T16:45:02.411Z,92.30
2022-09-26T16:47:33.758Z,92.40
2022-09-26T16:50:26.626Z,92.60
2022-09-26T16:52:54.503Z,92.90
2022-09-26T16:55:21.693Z,92.90
2022-09-26T16:57:59.497Z,92.80
2022-09-26T17:00:51.996Z,92.60
2022-09-26T17:03:22.744Z,92.70
2022-09-26T17:05:50.370Z,93.20
2022-09-26T17:08:17.768Z,93.40
2022-09-26T17:10:45.585Z,93.40
2022-09-26T17:13:14.295Z,93.50
2022-09-26T17:15:41.445Z,93.40
2022-09-26T17:18:08.888Z,93.50
2022-09-26T17:20:44.202Z,93.60
2022-09-26T17:23:35.327Z,93.80
2022-09-26T17:26:01.828Z,93.90
2022-09-26T17:28:33.881Z,93.70
2022-09-26T17:31:06.311Z,93.90
2022-09-26T17:33:34.635Z,93.80
2022-09-26T17:36:02.164Z,94.00
2022-09-26T17:38:29.202Z,94.00
2022-09-26T17:40:55.997Z,94.00
2022-09-26T17:43:23.001Z,93.80
2022-09-26T17:45:51.416Z,93.70
2022-09-26T17:48:19.343Z,93.80
2022-09-26T17:50:57.106Z,93.80
2022-09-26T17:53:25.561Z,93.80
2022-09-26T17:55:53.192Z,93.90
2022-09-26T17:58:20.055Z,94.10
2022-09-26T18:00:48.303Z,93.70
2022-09-26T18:03:19.810Z,93.70
2022-09-26T18:05:46.765Z,93.50
2022-09-26T18:08:13.500Z,93.40
2022-09-26T18:10:42.126Z,93.70
2022-09-26T18:13:14.788Z,93.80
2022-09-26T18:15:41.748Z,93.80
2022-09-26T18:18:14.442Z,94.00
2022-09-26T18:20:41.331Z,94.10
2022-09-26T18:23:10.956Z,94.20
2022-09-26T18:25:38.033Z,94.30
2022-09-26T18:28:06.642Z,94.40
2022-09-26T18:30:33.645Z,94.50
2022-09-26T18:33:00.465Z,94.50
2022-09-26T18:35:27.740Z,94.50
2022-09-26T18:37:55.857Z,94.70
2022-09-26T18:40:24.484Z,94.70
2022-09-26T18:42:51.654Z,94.80
2022-09-26T18:45:25.666Z,94.90
2022-09-26T18:47:52.594Z,94.90
2022-09-26T18:50:22.211Z,94.80
2022-09-26T18:52:50.067Z,94.90
2022-09-26T18:55:40.155Z,95.10
2022-09-26T18:58:28.302Z,95.10
2022-09-26T19:00:56.783Z,95.20
2022-09-26T19:03:24.583Z,95.20
2022-09-26T19:05:52.684Z,95.20
2022-09-26T19:08:33.577Z,95.20
2022-09-26T19:11:20.735Z,95.20
2022-09-26T19:13:57.653Z,95.10
2022-09-26T19:16:24.845Z,94.90
2022-09-26T19:18:51.934Z,94.70
2022-09-26T19:21:47.013Z,94.90
2022-09-26T19:24:37.214Z,95.00
2022-09-26T19:27:07.120Z,95.10
2022-09-26T19:29:36.261Z,95.10
2022-09-26T19:32:04.721Z,95.00
2022-09-26T19:34:32.917Z,94.90
2022-09-26T19:37:02.280Z,94.90
2022-09-26T19:39:29.074Z,94.90
2022-09-26T19:41:55.994Z,95.00
2022-09-26T19:44:24.338Z,94.90
2022-09-26T19:46:51.257Z,94.90
2022-09-26T19:49:18.958Z,94.80
2022-09-26T19:51:45.913Z,95.00
2022-09-26T19:54:17.525Z,94.90
2022-09-26T19:56:45.748Z,94.70
2022-09-26T19:59:13.592Z,94.70
2022-09-26T20:01:41.572Z,94.50
2022-09-26T20:04:18.521Z,94.40
2022-09-26T20:06:46.230Z,94.60
2022-09-26T20:09:18.531Z,94.20
2022-09-26T20:11:45.859Z,94.20
2022-09-26T20:14:24.741Z,94.30
2022-09-26T20:16:57.367Z,94.30
2022-09-26T20:19:29.572Z,94.40
2022-09-26T20:21:59.799Z,94.40
2022-09-26T20:24:26.991Z,94.20
2022-09-26T20:26:54.156Z,94.30
2022-09-26T20:29:21.075Z,94.20
2022-09-26T20:31:48.120Z,94.10
2022-09-26T20:34:21.426Z,94.10
2022-09-26T20:36:50.886Z,94.10
2022-09-26T20:39:25.984Z,94.10
2022-09-26T20:41:53.476Z,93.90
2022-09-26T20:44:22.666Z,93.90
2022-09-26T20:46:51.499Z,94.00
2022-09-26T20:49:23.975Z,94.10
2022-09-26T20:51:51.976Z,94.00
2022-09-26T20:54:32.168Z,94.20
2022-09-26T20:57:01.891Z,94.10
2022-09-26T20:59:32.666Z,94.10
2022-09-26T21:02:00.433Z,94.00
2022-09-26T21:04:32.043Z,94.00
2022-09-26T21:06:59.311Z,94.10
2022-09-26T21:09:26.552Z,94.20
2022-09-26T21:11:53.939Z,94.20
2022-09-26T21:14:21.378Z,94.10
2022-09-26T21:16:51.047Z,93.90
2022-09-26T21:19:23.525Z,94.00
2022-09-26T21:21:58.845Z,94.10
2022-09-26T21:24:38.263Z,94.10
2022-09-26T21:27:12.210Z,94.20
2022-09-26T21:29:40.061Z,94.10
2022-09-26T21:32:07.962Z,94.20
2022-09-26T21:34:34.965Z,94.10
2022-09-26T21:37:03.707Z,94.10
2022-09-26T21:39:30.794Z,94.10
2022-09-26T21:41:58.515Z,94.10
2022-09-26T21:44:25.435Z,94.10
2022-09-26T21:46:52.353Z,94.10
2022-09-26T21:49:19.141Z,94.20
2022-09-26T21:51:48.161Z,94.00
2022-09-26T21:54:20.201Z,93.70
2022-09-26T21:56:50.614Z,93.80
2022-09-26T21:59:19.702Z,93.70
2022-09-26T22:01:46.674Z,93.70
2022-09-26T22:04:14.067Z,93.60
2022-09-26T22:06:41.486Z,93.70
2022-09-26T22:09:08.729Z,93.80
2022-09-26T22:11:36.522Z,94.20
2022-09-26T22:14:03.604Z,94.40
2022-09-26T22:16:30.509Z,94.60
2022-09-26T22:18:57.850Z,94.80
2022-09-26T22:21:24.742Z,94.60
2022-09-26T22:23:51.820Z,94.50
2022-09-26T22:26:19.043Z,94.50
2022-09-26T22:28:46.191Z,94.30
2022-09-26T22:31:13.130Z,94.20
2022-09-26T22:33:40.268Z,94.30
2022-09-26T22:36:08.009Z,94.30
2022-09-26T22:38:35.590Z,94.40
2022-09-26T22:41:03.883Z,94.40
2022-09-26T22:43:31.229Z,94.10
2022-09-26T22:46:02.063Z,93.90
2022-09-26T22:48:33.276Z,93.80
2022-09-26T22:51:00.401Z,93.60
2022-09-26T22:53:27.448Z,93.60
2022-09-26T22:55:55.626Z,93.60
2022-09-26T22:58:22.972Z,93.70
2022-09-26T23:00:51.141Z,93.90
2022-09-26T23:03:18.184Z,93.90
2022-09-26T23:05:46.757Z,93.60
2022-09-26T23:08:13.517Z,93.40
2022-09-26T23:10:47.702Z,93.30
2022-09-26T23:13:14.696Z,93.70
2022-09-26T23:15:41.586Z,94.10
2022-09-26T23:18:08.604Z,94.20
2022-09-26T23:20:37.748Z,94.40
2022-09-26T23:23:04.664Z,94.40
2022-09-26T23:25:31.465Z,94.30
2022-09-26T23:27:58.323Z,94.10
2022-09-26T23:30:25.186Z,94.20
2022-09-26T23:32:52.104Z,94.10
2022-09-26T23:35:19.098Z,94.20
2022-09-26T23:37:46.097Z,94.10
2022-09-26T23:40:13.223Z,94.20
2022-09-26T23:42:40.469Z,94.20
2022-09-26T23:45:07.753Z,94.10
2022-09-26T23:47:34.799Z,92.90
2022-09-26T23:50:02.266Z,92.80
2022-09-26T23:52:29.446Z,93.20
2022-09-26T23:54:56.373Z,93.60
2022-09-26T23:57:24.055Z,93.80
2022-09-26T23:59:50.905Z,93.80
